createdAt,value
2023-03-08T00:00:43.863Z,4.74
2023-03-08T00:03:16.671Z,4.68
2023-03-08T00:05:45.768Z,4.71
2023-03-08T00:08:14.479Z,4.81
2023-03-08T00:10:48.476Z,4.62
2023-03-08T00:13:18.698Z,4.71
2023-03-08T00:15:48.032Z,4.75
2023-03-08T00:18:20.141Z,4.73
2023-03-08T00:20:48.039Z,4.75
2023-03-08T00:23:17.208Z,4.61
2023-03-08T00:25:45.737Z,4.76
2023-03-08T00:28:14.162Z,4.81
2023-03-08T00:30:44.552Z,4.70
2023-03-08T00:33:12.859Z,4.90
2023-03-08T00:35:44.666Z,4.68
2023-03-08T00:38:12.481Z,4.50
2023-03-08T00:40:41.590Z,4.77
2023-03-08T00:43:09.509Z,4.78
2023-03-08T00:45:38.030Z,4.77
2023-03-08T00:48:09.041Z,4.81
2023-03-08T00:50:39.819Z,4.62
2023-03-08T00:53:10.618Z,4.41
2023-03-08T00:55:40.561Z,4.81
2023-03-08T00:58:09.640Z,4.68
2023-03-08T01:00:49.022Z,4.61
2023-03-08T01:03:18.076Z,4.87
2023-03-08T01:05:50.317Z,4.76
2023-03-08T01:08:22.112Z,4.76
2023-03-08T01:10:51.361Z,4.92
2023-03-08T01:13:20.821Z,4.78
2023-03-08T01:15:49.648Z,4.84
2023-03-08T01:18:20.147Z,4.99
2023-03-08T01:20:56.678Z,4.95
2023-03-08T01:23:27.001Z,4.71
2023-03-08T01:26:03.244Z,4.70
2023-03-08T01:28:32.328Z,4.75
2023-03-08T01:31:03.257Z,4.77
2023-03-08T01:33:31.666Z,4.84
2023-03-08T01:36:00.943Z,4.88
2023-03-08T01:38:36.307Z,4.84
2023-03-08T01:41:19.177Z,4.73
2023-03-08T01:43:47.534Z,4.86
2023-03-08T01:46:26.474Z,4.89
2023-03-08T01:49:04.945Z,4.96
2023-03-08T01:51:39.773Z,4.92
2023-03-08T01:54:15.610Z,4.81
2023-03-08T01:56:47.276Z,4.63
2023-03-08T01:59:15.822Z,4.88
2023-03-08T02:01:44.237Z,4.90
2023-03-08T02:04:13.242Z,4.96
2023-03-08T02:06:41.948Z,4.71
2023-03-08T02:09:11.236Z,4.47
2023-03-08T02:11:42.101Z,4.83
2023-03-08T02:14:11.421Z,4.98
2023-03-08T02:16:49.246Z,4.83
2023-03-08T02:19:24.370Z,4.74
2023-03-08T02:21:53.286Z,4.75
2023-03-08T02:24:29.545Z,4.79
2023-03-08T02:27:03.141Z,4.76
2023-03-08T02:29:32.478Z,4.80
2023-03-08T02:32:01.884Z,4.76
2023-03-08T02:34:31.864Z,4.76
2023-03-08T02:37:00.715Z,4.76
2023-03-08T02:39:33.439Z,4.78
2023-03-08T02:42:01.627Z,4.76
2023-03-08T02:44:30.840Z,4.72
2023-03-08T02:46:59.672Z,4.65
2023-03-08T02:49:28.075Z,4.65
2023-03-08T02:51:57.595Z,4.80
2023-03-08T02:54:25.517Z,4.78
2023-03-08T02:56:56.977Z,4.84
2023-03-08T02:59:26.805Z,4.79
2023-03-08T03:01:55.092Z,4.82
2023-03-08T03:04:25.539Z,4.61
2023-03-08T03:06:58.011Z,4.92
2023-03-08T03:09:29.508Z,4.86
2023-03-08T03:12:02.124Z,5.00
2023-03-08T03:14:31.260Z,4.84
2023-03-08T03:17:01.970Z,4.78
2023-03-08T03:19:31.762Z,4.78
2023-03-08T03:21:59.583Z,4.86
2023-03-08T03:24:28.079Z,4.87
2023-03-08T03:26:59.723Z,4.83
2023-03-08T03:29:33.100Z,4.88
2023-03-08T03:32:08.701Z,4.83
2023-03-08T03:34:37.653Z,4.91
2023-03-08T03:37:06.159Z,4.93
2023-03-08T03:39:39.016Z,4.95
2023-03-08T03:42:11.651Z,5.02
2023-03-08T03:44:42.406Z,5.01
2023-03-08T03:47:12.218Z,5.07
2023-03-08T03:49:43.713Z,5.06
2023-03-08T03:52:20.828Z,5.06
2023-03-08T03:54:54.640Z,4.80
2023-03-08T03:57:35.161Z,4.85
2023-03-08T04:00:06.193Z,4.85
2023-03-08T04:02:38.342Z,4.78
2023-03-08T04:05:10.064Z,4.73
2023-03-08T04:07:39.180Z,4.56
2023-03-08T04:10:08.167Z,4.75
2023-03-08T04:12:36.163Z,4.88
2023-03-08T04:15:11.672Z,4.73
2023-03-08T04:17:39.959Z,4.66
2023-03-08T04:20:10.444Z,4.87
2023-03-08T04:22:44.389Z,4.72
2023-03-08T04:25:12.746Z,4.54
2023-03-08T04:27:45.641Z,4.71
2023-03-08T04:30:16.779Z,4.68
2023-03-08T04:32:48.774Z,4.61
2023-03-08T04:35:30.374Z,4.76
2023-03-08T04:37:59.061Z,4.74
2023-03-08T04:40:27.330Z,4.80
2023-03-08T04:42:55.544Z,4.81
2023-03-08T04:45:26.345Z,4.79
2023-03-08T04:47:55.966Z,4.71
2023-03-08T04:50:25.405Z,4.71
2023-03-08T04:52:53.260Z,4.63
2023-03-08T04:55:28.630Z,4.68
2023-03-08T04:57:57.482Z,4.73
2023-03-08T05:00:30.240Z,4.82
2023-03-08T05:02:59.598Z,4.96
2023-03-08T05:05:27.554Z,4.81
2023-03-08T05:07:55.538Z,4.85
2023-03-08T05:10:23.720Z,4.72
2023-03-08T05:12:51.628Z,4.73
2023-03-08T05:15:22.157Z,4.92
2023-03-08T05:17:54.017Z,4.91
2023-03-08T05:20:24.511Z,4.87
2023-03-08T05:22:59.288Z,4.74
2023-03-08T05:25:31.755Z,5.18
2023-03-08T05:28:01.158Z,4.96
2023-03-08T05:30:30.242Z,4.97
2023-03-08T05:33:07.248Z,5.07
2023-03-08T05:35:37.976Z,4.71
2023-03-08T05:38:09.458Z,4.83
2023-03-08T05:40:39.291Z,4.80
2023-03-08T05:43:08.936Z,4.78
2023-03-08T05:45:37.109Z,4.69
2023-03-08T05:48:12.798Z,4.98
2023-03-08T05:50:40.863Z,5.11
2023-03-08T05:53:09.979Z,4.93
2023-03-08T05:56:13.372Z,4.95
2023-03-08T05:58:45.624Z,4.56
2023-03-08T06:01:19.424Z,4.74
2023-03-08T06:03:51.484Z,4.74
2023-03-08T06:06:21.216Z,4.60
2023-03-08T06:08:56.224Z,4.71
2023-03-08T06:11:34.397Z,4.62
2023-03-08T06:14:03.747Z,4.48
2023-03-08T06:16:34.410Z,4.61
2023-03-08T06:19:07.282Z,4.36
2023-03-08T06:21:37.313Z,4.37
2023-03-08T06:24:06.519Z,4.35
2023-03-08T06:26:35.913Z,4.37
2023-03-08T06:29:13.443Z,4.45
2023-03-08T06:31:43.947Z,4.49
2023-03-08T06:34:16.706Z,4.49
2023-03-08T06:36:46.788Z,4.51
2023-03-08T06:39:16.348Z,4.48
2023-03-08T06:41:47.316Z,4.45
2023-03-08T06:44:16.817Z,4.41
2023-03-08T06:46:45.151Z,4.31
2023-03-08T06:49:20.987Z,4.37
2023-03-08T06:51:49.342Z,4.41
2023-03-08T06:54:24.084Z,4.36
2023-03-08T06:56:54.817Z,4.21
2023-03-08T06:59:28.445Z,4.40
2023-03-08T07:01:57.581Z,4.34
2023-03-08T07:04:28.435Z,4.21
2023-03-08T07:06:57.550Z,4.01
2023-03-08T07:09:27.999Z,3.93
2023-03-08T07:11:59.210Z,4.18
2023-03-08T07:14:27.577Z,3.94
2023-03-08T07:16:55.676Z,4.06
2023-03-08T07:19:28.197Z,4.35
2023-03-08T07:21:59.405Z,4.27
2023-03-08T07:24:29.026Z,4.12
2023-03-08T07:26:56.807Z,4.00
2023-03-08T07:29:27.870Z,4.43
2023-03-08T07:31:59.942Z,4.26
2023-03-08T07:34:30.451Z,4.16
2023-03-08T07:37:01.112Z,4.27
2023-03-08T07:39:31.711Z,4.02
2023-03-08T07:42:01.416Z,3.92
2023-03-08T07:44:29.687Z,3.85
2023-03-08T07:46:58.293Z,4.05
2023-03-08T07:49:27.448Z,4.02
2023-03-08T07:52:01.093Z,4.11
2023-03-08T07:54:30.091Z,4.18
2023-03-08T07:57:01.522Z,4.00
2023-03-08T07:59:29.959Z,4.18
2023-03-08T08:02:01.474Z,4.19
2023-03-08T08:04:31.414Z,4.02
2023-03-08T08:07:05.153Z,3.99
2023-03-08T08:09:34.211Z,4.15
2023-03-08T08:12:02.491Z,3.97
2023-03-08T08:14:36.672Z,3.88
2023-03-08T08:17:05.629Z,3.92
2023-03-08T08:19:35.712Z,4.00
2023-03-08T08:22:08.568Z,4.03
2023-03-08T08:24:37.469Z,3.87
2023-03-08T08:27:09.189Z,4.04
2023-03-08T08:29:39.433Z,4.08
2023-03-08T08:32:11.130Z,4.10
2023-03-08T08:34:39.966Z,3.79
2023-03-08T08:37:13.230Z,3.96
2023-03-08T08:39:51.447Z,4.00
2023-03-08T08:42:19.536Z,4.03
2023-03-08T08:44:51.324Z,3.87
2023-03-08T08:47:21.290Z,3.76
2023-03-08T08:49:55.952Z,3.74
2023-03-08T08:52:29.900Z,3.31
2023-03-08T08:55:00.657Z,3.60
2023-03-08T08:57:34.248Z,3.61
2023-03-08T09:00:12.264Z,3.63
2023-03-08T09:02:43.928Z,3.51
2023-03-08T09:05:12.268Z,3.52
2023-03-08T09:07:43.732Z,3.55
2023-03-08T09:10:14.309Z,3.64
2023-03-08T09:12:50.758Z,3.39
2023-03-08T09:15:21.896Z,3.78
2023-03-08T09:17:51.732Z,3.90
2023-03-08T09:20:23.805Z,3.97
2023-03-08T09:22:55.906Z,3.95
2023-03-08T09:25:27.220Z,4.07
2023-03-08T09:27:55.428Z,3.89
2023-03-08T09:30:24.816Z,3.81
2023-03-08T09:32:53.352Z,3.85
2023-03-08T09:35:21.950Z,3.89
2023-03-08T09:37:51.191Z,3.94
2023-03-08T09:40:33.723Z,3.78
2023-03-08T09:43:08.722Z,3.83
2023-03-08T09:45:38.886Z,3.82
2023-03-08T09:48:19.177Z,3.46
2023-03-08T09:50:52.842Z,3.71
2023-03-08T09:53:30.119Z,3.74
2023-03-08T09:56:07.194Z,3.70
2023-03-08T09:58:43.834Z,3.31
2023-03-08T10:01:25.864Z,3.62
2023-03-08T10:04:38.499Z,3.53
2023-03-08T10:07:35.133Z,3.84
2023-03-08T10:10:31.400Z,3.81
2023-03-08T10:13:32.153Z,3.76
2023-03-08T10:16:14.503Z,3.95
2023-03-08T10:18:48.102Z,4.07
2023-03-08T10:21:24.990Z,4.05
2023-03-08T10:24:08.056Z,4.17
2023-03-08T10:26:37.800Z,4.14
2023-03-08T10:31:52.329Z,4.25
2023-03-08T10:34:32.619Z,4.36
2023-03-08T10:37:08.252Z,4.31
2023-03-08T10:39:37.212Z,4.29
2023-03-08T10:42:16.958Z,4.22
2023-03-08T10:44:53.283Z,4.37
2023-03-08T10:47:26.909Z,4.19
2023-03-08T10:50:18.547Z,4.35
2023-03-08T10:52:55.831Z,4.37
2023-03-08T10:55:28.162Z,4.36
2023-03-08T10:57:59.632Z,4.48
2023-03-08T11:00:35.704Z,4.48
2023-03-08T11:03:16.089Z,4.48
2023-03-08T11:05:54.105Z,4.56
2023-03-08T11:08:25.391Z,4.42
2023-03-08T11:11:14.305Z,4.29
2023-03-08T11:13:49.091Z,4.40
2023-03-08T11:16:31.415Z,4.49
2023-03-08T11:19:08.238Z,4.50
2023-03-08T11:21:55.926Z,4.48
2023-03-08T11:24:40.195Z,4.59
2023-03-08T11:27:24.592Z,4.49
2023-03-08T11:30:07.898Z,4.48
2023-03-08T11:33:00.842Z,4.59
2023-03-08T11:35:48.096Z,4.75
2023-03-08T11:38:19.809Z,4.80
2023-03-08T11:40:57.825Z,4.89
2023-03-08T11:43:46.624Z,4.70
2023-03-08T11:46:29.551Z,4.74
2023-03-08T11:49:18.900Z,4.90
2023-03-08T11:52:03.969Z,5.02
2023-03-08T11:54:45.078Z,5.08
2023-03-08T11:57:16.165Z,5.22
2023-03-08T11:59:51.433Z,5.07
2023-03-08T12:02:26.495Z,5.17
2023-03-08T12:05:03.100Z,5.22
2023-03-08T12:07:41.436Z,5.19
2023-03-08T12:10:20.547Z,5.22
2023-03-08T12:12:57.615Z,5.27
2023-03-08T12:15:36.424Z,5.34
2023-03-08T12:18:12.335Z,5.27
2023-03-08T12:20:43.781Z,5.58
2023-03-08T12:23:30.212Z,5.52
2023-03-08T12:26:09.972Z,5.62
2023-03-08T12:28:49.538Z,5.61
2023-03-08T12:31:28.719Z,5.49
2023-03-08T12:34:15.033Z,5.61
2023-03-08T12:36:49.102Z,5.57
2023-03-08T12:39:37.520Z,5.60
2023-03-08T12:42:17.495Z,5.69
2023-03-08T12:44:48.163Z,5.79
2023-03-08T12:47:24.411Z,5.82
2023-03-08T12:49:58.213Z,5.87
2023-03-08T12:52:33.364Z,5.76
2023-03-08T12:55:14.052Z,5.63
2023-03-08T12:57:50.052Z,5.64
2023-03-08T13:00:30.597Z,5.57
2023-03-08T13:03:09.195Z,5.57
2023-03-08T13:05:42.010Z,5.81
2023-03-08T13:08:30.018Z,5.96
2023-03-08T13:11:17.372Z,6.02
2023-03-08T13:13:52.483Z,5.86
2023-03-08T13:16:42.772Z,5.80
2023-03-08T13:19:20.721Z,5.88
2023-03-08T13:21:53.342Z,5.90
2023-03-08T13:24:40.179Z,5.95
2023-03-08T13:27:33.918Z,6.02
2023-03-08T13:30:18.217Z,6.42
2023-03-08T13:32:49.339Z,6.22
2023-03-08T13:35:20.188Z,6.26
2023-03-08T13:37:56.772Z,6.33
2023-03-08T13:40:25.591Z,6.29
2023-03-08T13:42:56.802Z,6.49
2023-03-08T13:45:27.539Z,6.33
2023-03-08T13:48:02.499Z,6.12
2023-03-08T13:50:33.047Z,6.60
2023-03-08T13:53:07.076Z,6.16
2023-03-08T13:55:41.520Z,6.02
2023-03-08T13:58:29.332Z,6.16
2023-03-08T14:01:04.415Z,6.15
2023-03-08T14:03:33.872Z,5.99
2023-03-08T14:06:05.482Z,5.76
2023-03-08T14:08:41.386Z,5.87
2023-03-08T14:11:17.732Z,5.99
2023-03-08T14:13:53.064Z,5.85
2023-03-08T14:16:28.413Z,5.96
2023-03-08T14:18:56.643Z,6.08
2023-03-08T14:21:27.627Z,6.00
2023-03-08T14:23:57.809Z,5.95
2023-03-08T14:26:32.028Z,6.00
2023-03-08T14:32:06.703Z,5.95
2023-03-08T14:34:40.853Z,6.09
2023-03-08T14:37:19.660Z,6.38
2023-03-08T14:39:50.669Z,6.18
2023-03-08T14:42:23.851Z,6.20
2023-03-08T14:44:54.421Z,6.22
2023-03-08T14:47:32.109Z,6.22
2023-03-08T14:50:04.146Z,6.20
2023-03-08T14:52:35.769Z,6.26
2023-03-08T14:55:06.237Z,6.20
2023-03-08T14:57:35.728Z,6.33
2023-03-08T15:00:16.329Z,6.36
2023-03-08T15:02:47.538Z,6.38
2023-03-08T15:05:28.114Z,6.29
2023-03-08T15:08:05.936Z,6.52
2023-03-08T15:10:37.402Z,6.44
2023-03-08T15:13:09.208Z,6.41
2023-03-08T15:15:37.443Z,6.35
2023-03-08T15:18:08.214Z,6.40
2023-03-08T15:20:46.823Z,6.36
2023-03-08T15:23:19.514Z,6.33
2023-03-08T15:25:50.232Z,6.52
2023-03-08T15:28:20.176Z,6.33
2023-03-08T15:30:52.719Z,6.53
2023-03-08T15:33:23.925Z,6.35
2023-03-08T15:35:54.077Z,6.61
2023-03-08T15:38:24.346Z,6.36
2023-03-08T15:40:52.852Z,6.24
2023-03-08T15:43:21.198Z,6.22
2023-03-08T15:45:53.010Z,6.18
2023-03-08T15:48:24.713Z,6.24
2023-03-08T15:50:53.604Z,6.28
2023-03-08T15:53:34.857Z,6.36
2023-03-08T15:56:05.468Z,6.29
2023-03-08T15:58:35.472Z,6.29
2023-03-08T16:01:04.086Z,6.44
2023-03-08T16:03:37.642Z,6.64
2023-03-08T16:06:15.423Z,6.67
2023-03-08T16:08:51.742Z,6.95
2023-03-08T16:11:22.520Z,6.72
2023-03-08T16:13:52.054Z,6.59
2023-03-08T16:16:32.297Z,6.55
2023-03-08T16:19:11.015Z,6.82
2023-03-08T16:21:41.585Z,6.77
2023-03-08T16:24:11.477Z,7.01
2023-03-08T16:26:41.651Z,6.94
2023-03-08T16:29:12.373Z,6.77
2023-03-08T16:31:40.270Z,6.88
2023-03-08T16:34:12.975Z,7.10
2023-03-08T16:36:41.654Z,7.13
2023-03-08T16:39:10.553Z,6.55
2023-03-08T16:41:40.537Z,6.26
2023-03-08T16:44:23.220Z,6.37
2023-03-08T16:46:53.826Z,6.54
2023-03-08T16:49:28.618Z,6.45
2023-03-08T16:51:57.258Z,6.50
2023-03-08T16:54:30.310Z,6.30
2023-03-08T16:57:04.834Z,6.56
2023-03-08T16:59:42.366Z,6.41
2023-03-08T17:02:16.015Z,6.12
2023-03-08T17:04:46.946Z,6.15
2023-03-08T17:07:18.319Z,6.27
2023-03-08T17:09:47.221Z,6.32
2023-03-08T17:12:16.107Z,5.93
2023-03-08T17:14:45.734Z,5.66
2023-03-08T17:17:17.372Z,5.71
2023-03-08T17:19:48.944Z,5.77
2023-03-08T17:22:18.012Z,5.70
2023-03-08T17:24:46.066Z,5.58
2023-03-08T17:27:17.059Z,5.21
2023-03-08T17:29:46.163Z,5.68
2023-03-08T17:32:16.623Z,5.87
2023-03-08T17:37:43.052Z,6.31
2023-03-08T17:40:14.655Z,6.25
2023-03-08T17:42:43.441Z,6.53
2023-03-08T17:45:33.852Z,6.85
2023-03-08T17:48:19.006Z,6.91
2023-03-08T17:50:50.651Z,6.73
2023-03-08T17:53:24.468Z,6.83
2023-03-08T17:55:53.303Z,6.79
2023-03-08T17:58:21.464Z,6.88
2023-03-08T18:00:52.169Z,7.33
2023-03-08T18:03:21.789Z,7.50
2023-03-08T18:05:53.539Z,7.48
2023-03-08T18:08:31.010Z,7.76
2023-03-08T18:10:59.586Z,7.99
2023-03-08T18:13:31.173Z,7.55
2023-03-08T18:16:14.378Z,7.83
2023-03-08T18:18:58.732Z,7.59
2023-03-08T18:21:39.982Z,7.37
2023-03-08T18:27:31.263Z,7.71
2023-03-08T18:30:07.900Z,7.68
2023-03-08T18:39:10.027Z,7.91
2023-03-08T18:42:33.764Z,7.78
2023-03-08T18:49:14.469Z,7.81
2023-03-08T19:00:55.078Z,7.59
2023-03-08T19:03:38.336Z,7.59
2023-03-08T19:12:37.580Z,7.36
2023-03-08T19:15:26.616Z,7.53
2023-03-08T19:29:44.326Z,7.61
2023-03-08T19:39:06.477Z,7.82
2023-03-08T20:03:00.296Z,7.73
2023-03-08T21:18:08.882Z,7.97
2023-03-08T22:16:17.947Z,8.40
2023-03-08T22:18:58.597Z,8.15
2023-03-08T22:21:32.746Z,7.92
2023-03-08T22:24:06.880Z,7.87
2023-03-08T22:26:49.202Z,7.96
2023-03-08T22:29:24.002Z,7.94
2023-03-08T22:32:17.085Z,7.85
2023-03-08T22:35:24.254Z,7.90
2023-03-08T22:40:47.840Z,8.08
2023-03-08T22:54:54.661Z,8.09
2023-03-08T23:06:51.361Z,8.51
2023-03-08T23:09:44.230Z,8.27
2023-03-08T23:13:06.438Z,8.47
2023-03-08T23:19:12.277Z,8.32
2023-03-08T23:33:26.063Z,8.18
2023-03-08T23:45:37.085Z,8.43
2023-03-08T23:48:11.005Z,8.19
2023-03-08T23:50:40.193Z,8.40
2023-03-08T23:53:14.590Z,8.29
2023-03-08T23:55:45.371Z,8.36
2023-03-08T23:58:19.083Z,8.13
